• Join FlightAware (Why Join?)
  • Login
  • US Flag 
05:00AM EDT


 

Airport Tracker/Info


-or-


 

Live Flight TrackerFlight Track Log ✈ VH-CZS ✈ 25-Jan-2014 ✈ YSCN / CDU - YSCN / CDU

Flight Track Log - Related Links

Times and Time Zones

All times are in EST time to prevent confusion due to time zone crossing. See the VH-CZS flight status page for this flight to view local times or setup timezone preferences in your user account.

Time Position Orientation Groundspeed Altitude Reporting Facility
EST Latitude Longitude Course Direction KTS MPH feet Rate Location/Type
10:00PM -33.7336 151.3100 47° Northeast 79 91 1,600  Level Aus ATC (RADAR)
10:01PM -33.7226 151.3243 47° Northeast 115 132 1,600  Level Aus ATC (RADAR)
10:01PM -33.7247 151.3095 260° West 88 101 1,600  Level Aus ATC (RADAR)
10:02PM -33.7350 151.3015 213° Southwest 75 86 1,600  Level Aus ATC (RADAR)
10:03PM -33.7447 151.2936 214° Southwest 73 84 1,600 60 Level Aus ATC (RADAR)
10:03PM -33.7547 151.2849 216° Southwest 78 90 1,700  Climbing Aus ATC (RADAR)
10:04PM -33.7710 151.2692 219° Southwest 81 93 1,600 -120 Descending Aus ATC (RADAR)
10:04PM -33.7792 151.2625 214° Southwest 84 97 1,600  Level Aus ATC (RADAR)
10:05PM -33.7907 151.2551 208° Southwest 79 91 1,600  Level Aus ATC (RADAR)
10:06PM -33.8024 151.2457 214° Southwest 75 86 1,600  Level Aus ATC (RADAR)
10:06PM -33.8107 151.2402 209° Southwest 80 92 1,600  Level Aus ATC (RADAR)
10:07PM -33.8219 151.2328 209° Southwest 77 89 1,600  Level Aus ATC (RADAR)
10:07PM -33.8370 151.2232 208° Southwest 83 96 1,600 -120 Level Aus ATC (RADAR)
10:08PM -33.8491 151.2171 203° Southwest 80 92 1,500  Descending Aus ATC (RADAR)
10:09PM -33.8551 151.2252 132° Southeast 91 105 1,700  Climbing Aus ATC (RADAR)
10:10PM -33.8537 151.2347 80° East 93 107 1,600 -240 Descending Aus ATC (RADAR)
10:10PM -33.8458 151.2239 311° West 95 109 1,500  Descending Aus ATC (RADAR)
10:11PM -33.8491 151.2335 112° Southeast 94 108 1,600 60 Climbing Aus ATC (RADAR)
10:12PM -33.8388 151.2506 54° Northeast 105 121 1,600  Level Aus ATC (RADAR)
10:12PM -33.8295 151.2704 60° Northeast 100 115 1,600  Level Aus ATC (RADAR)
10:13PM -33.8228 151.2858 62° Northeast 103 119 1,600  Level Aus ATC (RADAR)
10:13PM -33.8076 151.2897 12° North 116 133 1,600  Level Aus ATC (RADAR)
10:14PM -33.7959 151.2895 359° North 124 143 1,600  Level Aus ATC (RADAR)
10:17PM -33.7438 151.1980 304° West 2,400 240 Climbing Aus ATC (Calculated)
10:19PM -33.7222 151.1602 304° West  Level FlightAware Approximate
10:20PM -33.7083 151.1357 304° West  Level FlightAware Approximate
10:21PM -33.6943 151.1113 304° West  Level FlightAware Approximate
10:22PM -33.6804 151.0869 304° West  Level FlightAware Approximate
10:22PM -33.6917 151.1067 258° West 2,400  Level Aus ATC (Calculated)
10:23PM -33.6985 151.0668 106° East  Level Estimated
10:24PM -33.7028 151.1542 106° East  Level FlightAware Approximate
10:25PM -33.7095 151.1827 106° East  Level FlightAware Approximate
10:26PM -33.7162 151.2112 106° East  Level FlightAware Approximate
10:27PM -33.7229 151.2398 106° East  Level FlightAware Approximate
10:28PM -33.7295 151.2683 106° East  Level FlightAware Approximate
10:29PM -33.7362 151.2968 106° East  Level FlightAware Approximate
10:30PM -33.7584 151.3119 206° Southwest  Level FlightAware Approximate
10:30PM -33.8167 150.9167 87° East  Level Aus ATC (Calculated)
10:32PM -33.8146 150.9591 87° East  Level FlightAware Approximate
10:33PM -33.8321 150.9382 26° Northeast  Level Estimated
10:34PM -33.8254 150.9667 74° East  Level FlightAware Approximate
10:35PM -33.8422 150.9450 286° West  Level Estimated
10:36PM -33.8238 150.9648 42° Northeast  Level FlightAware Approximate
10:37PM -33.8054 150.9845 42° Northeast  Level FlightAware Approximate
10:38PM -33.7870 151.0043 42° Northeast  Level FlightAware Approximate
10:39PM -33.7687 151.0241 42° Northeast  Level FlightAware Approximate
10:40PM -33.7503 151.0438 42° Northeast  Level FlightAware Approximate
10:41PM -33.7319 151.0635 42° Northeast  Level FlightAware Approximate
10:42PM -33.7135 151.0833 42° Northeast  Level FlightAware Approximate
10:42PM -34.0402 150.6872 172° South  Level Aus ATC (Calculated)
10:44PM -34.0403 150.6872 232° Southwest  Level Estimated
10:45PM -34.0403 150.6872 40° Northeast  Level Estimated
10:46PM -34.0403 150.6872 40° Northeast  Level Estimated
10:47PM -34.0403 150.6872 40° Northeast  Level Estimated
10:48PM -34.0403 150.6872 40° Northeast  Level Estimated
10:49PM -34.0403 150.6872 40° Northeast  Level Estimated
10:50PM -34.0403 150.6872 40° Northeast  Level Estimated